• Join FlightAware (Why Join?)
  • Login
  • US Flag 
10:58PM EDT


 

Airport Tracker/Info


-or-


 

Live Flight TrackerFlight Track Log ✈ N135AJ ✈ 26-Jul-2013 ✈ TJSJ / SJU - KORL

Flight Track Log - Related Links

Times and Time Zones

All times are in EDT time to prevent confusion due to time zone crossing. See the N135AJ flight status page for this flight to view local times or setup timezone preferences in your user account.

Time Position Orientation Groundspeed Altitude Reporting Facility
EDT Latitude Longitude Course Direction KTS MPH feet Rate Location/Type
11:36AM 18.4500 -65.9667 317° Northwest 220 253 1,200  Level San Juan Center
11:37AM 18.5167 -66.0000 335° Northwest 230 265 3,800 2,520 Climbing San Juan Center
11:38AM 18.5667 -66.0667 308° West 290 334 6,300 2,640 Climbing San Juan Center
11:39AM 18.6167 -66.1333 308° West 320 368 9,200 2,580 Climbing San Juan Center
11:40AM 18.6667 -66.2000 308° West 330 380 11,600 2,460 Climbing San Juan Center
11:41AM 18.7333 -66.2667 317° Northwest 330 380 14,200 2,400 Climbing San Juan Center
11:42AM 18.9028 -66.4528 317° Northwest  Level FlightAware Approximate
11:42AM 18.8000 -66.3333 317° Northwest 340 391 16,500  Level San Juan Center
11:43AM 18.8667 -66.4167 310° West 350 403 18,700 2,040 Climbing San Juan Center
11:44AM 18.9333 -66.5000 310° West 360 414 20,600 1,800 Climbing San Juan Center
11:45AM 19.0000 -66.5833 310° West 370 426 22,400 1,860 Climbing San Juan Center
11:46AM 19.0667 -66.6833 305° West 380 437 24,400 1,680 Climbing San Juan Center
11:47AM 19.1333 -66.7500 317° Northwest 380 437 25,900 1,500 Climbing San Juan Center
11:48AM 19.2167 -66.8500 311° West 400 460 27,400 1,200 Climbing San Juan Center
11:49AM 19.2833 -66.9333 310° West 400 460 28,400 1,020 Climbing San Juan Center
11:50AM 19.3500 -67.0167 310° West 410 472 29,500 1,080 Climbing San Juan Center
11:51AM 19.4167 -67.1167 305° West 410 472 30,600 1,200 Climbing San Juan Center
11:52AM 19.5000 -67.2000 317° Northwest 410 472 31,900 1,260 Climbing San Juan Center
11:53AM 19.5667 -67.2833 310° West 370 426 33,200 1,260 Climbing San Juan Center
11:54AM 19.6500 -67.3833 312° West 400 460 34,500 960 Climbing San Juan Center
11:55AM 19.7167 -67.4500 317° Northwest 370 426 35,200 840 Climbing San Juan Center
11:56AM 19.7667 -67.5500 298° West 370 426 36,200 840 Climbing San Juan Center
11:57AM 19.8333 -67.6333 310° West 390 449 36,900 780 Climbing San Juan Center
11:58AM 19.9000 -67.7167 310° West 370 426 37,800 720 Climbing San Juan Center
11:59AM 19.9667 -67.8000 310° West 370 426 38,400 480 Climbing San Juan Center
12:00PM 20.0333 -67.8833 310° West 360 414 38,800 480 Climbing San Juan Center
12:02PM 20.1397 -68.0114 312° West 383 441 39,600 420 Climbing Miami Center
12:03PM 20.2067 -68.0908 312° West 383 441 39,900 180 Climbing Miami Center
12:04PM 20.2719 -68.1769 309° West 378 435 40,000  Climbing Miami Center
12:05PM 20.3369 -68.2633 309° West 378 435 40,000  Level Miami Center
12:06PM 20.4061 -68.3494 311° West 378 435 40,000  Level Miami Center
12:07PM 20.4736 -68.4425 308° West 383 441 40,000  Level Miami Center
12:08PM 20.5533 -68.5306 314° West 395 455 40,000  Level Miami Center
12:09PM 20.5986 -68.6383 294° West 395 455 40,000  Level Miami Center
12:10PM 20.6500 -68.7458 297° West 406 467 40,000  Level Miami Center
12:11PM 20.7119 -68.8528 302° West 411 473 40,000  Level Miami Center
12:12PM 20.7675 -68.9625 298° West 416 479 40,000  Level Miami Center
12:13PM 20.8208 -69.0700 298° West 421 484 40,000  Level Miami Center
12:14PM 20.8783 -69.1775 300° West 421 484 40,000  Level Miami Center
12:15PM 20.9242 -69.2592 301° West 415 478 40,000  Level Miami Center
12:16PM 20.9844 -69.3889 296° West 409 471 40,000  Level Miami Center
12:17PM 21.0436 -69.4922 302° West 409 471 40,000  Level Miami Center
12:18PM 21.0964 -69.5958 299° West 402 463 40,000  Level Miami Center
12:19PM 21.1536 -69.7039 300° West 402 463 40,000  Level Miami Center
12:20PM 21.2064 -69.8100 298° West 407 468 40,000  Level Miami Center
12:21PM 21.2614 -69.9161 299° West 402 463 40,000  Level Miami Center
12:22PM 21.3181 -70.0197 300° West 402 463 40,000  Level Miami Center
12:23PM 21.3708 -70.1261 298° West 402 463 40,000  Level Miami Center
12:24PM 21.4253 -70.2325 299° West 407 468 40,000  Level Miami Center
12:25PM 21.4800 -70.3389 299° West 407 468 40,000  Level Miami Center
12:26PM 21.5364 -70.4431 300° West 407 468 40,000  Level Miami Center
12:27PM 21.5889 -70.5522 297° West 402 463 40,000  Level Miami Center
12:28PM 21.6456 -70.6586 300° West 402 463 40,000  Level Miami Center
12:29PM 21.7000 -70.7700 298° West 409 471 40,000  Level Miami Center
12:30PM 21.7542 -70.8747 299° West 409 471 40,000  Level Miami Center
12:31PM 21.8106 -70.9861 299° West 409 471 40,000  Level Miami Center
12:32PM 21.8714 -71.1042 299° West 409 471 40,000  Level Miami Center
12:33PM 21.9189 -71.2028 297° West 409 471 40,000  Level Miami Center
12:34PM 21.9819 -71.3231 299° West 414 476 40,000  Level Miami Center
12:35PM 22.0378 -71.4303 299° West 414 476 40,000  Level Miami Center
12:36PM 22.0897 -71.5400 297° West 414 476 40,000  Level Miami Center
12:37PM 22.1456 -71.6475 299° West 414 476 40,000  Level Miami Center
12:38PM 22.1994 -71.7575 298° West 414 476 40,000  Level Miami Center
12:39PM 22.2531 -71.8653 298° West 414 476 40,000  Level Miami Center
12:40PM 22.3089 -71.9753 299° West 414 476 40,000  Level Miami Center
12:41PM 22.3644 -72.0856 299° West 414 476 40,000  Level Miami Center
12:42PM 22.4158 -72.1936 297° West 414 476 40,000  Level Miami Center
12:43PM 22.4714 -72.3039 299° West 419 482 40,000  Level Miami Center
12:44PM 22.5289 -72.4142 299° West 419 482 40,000  Level Miami Center
12:45PM 22.5914 -72.5469 297° West 419 482 40,000  Level Miami Center
12:46PM 22.6486 -72.6575 299° West 419 482 40,000  Level Miami Center
12:47PM 22.6953 -72.7572 297° West 419 482 40,000  Level Miami Center
12:48PM 22.7483 -72.8681 297° West 419 482 40,000  Level Miami Center
12:49PM 22.8036 -72.9814 298° West 419 482 40,000  Level Miami Center
12:50PM 22.8564 -73.0925 297° West 419 482 40,000  Level Miami Center
12:51PM 22.9133 -73.1989 300° West 419 482 40,000  Level Miami Center
12:52PM 22.9683 -73.3147 297° West 419 482 40,000  Level Miami Center
12:53PM 23.0211 -73.4239 298° West 419 482 40,000  Level Miami Center
12:54PM 23.0628 -73.5131 297° West 419 482 40,000  Level Miami Center
12:55PM 23.1283 -73.6467 298° West 419 482 40,000  Level Miami Center
12:56PM 23.1831 -73.7606 298° West 419 482 40,000  Level Miami Center
12:57PM 23.2375 -73.8722 298° West 419 482 40,000  Level Miami Center
12:58PM 23.2919 -73.9842 298° West 424 488 40,000  Level Miami Center
12:59PM 23.3506 -74.1072 297° West 424 488 40,000  Level Miami Center
01:00PM 23.4047 -74.2192 298° West 418 481 40,000  Level Miami Center
01:01PM 23.4589 -74.3314 298° West 418 481 40,000  Level Miami Center
01:02PM 23.5131 -74.4436 298° West 418 481 40,000  Level Miami Center
01:03PM 23.5628 -74.5558 296° West 418 481 40,000  Level Miami Center
01:04PM 23.6189 -74.6683 299° West 418 481 40,000  Level Miami Center
01:05PM 23.6914 -74.7667 309° West 418 481 40,000  Level Miami Center
01:06PM 23.7636 -74.8633 309° West 412 474 40,000  Level Miami Center
01:07PM 23.8339 -74.9644 307° West 417 480 40,000  Level Miami Center
01:08PM 23.9064 -75.0633 309° West 417 480 40,000  Level Miami Center
01:09PM 23.9764 -75.1647 307° West 417 480 40,000  Level Miami Center
01:10PM 24.0486 -75.2636 309° West 417 480 40,000  Level Miami Center
01:11PM 24.1186 -75.3631 308° West 417 480 40,000  Level Miami Center
01:12PM 24.1886 -75.4647 307° West 417 480 40,000  Level Miami Center
01:13PM 24.2583 -75.5619 308° West 417 480 40,000  Level Miami Center
01:14PM 24.3281 -75.6614 308° West 417 480 40,000  Level Miami Center
01:15PM 24.4000 -75.7611 308° West 417 480 40,000  Level Miami Center
01:16PM 24.4697 -75.8656 306° West 417 480 40,000  Level Miami Center
01:17PM 24.5394 -75.9656 307° West 417 480 40,000  Level Miami Center
01:18PM 24.6089 -76.0633 308° West 417 480 40,000  Level Miami Center
01:19PM 24.6783 -76.1614 308° West 417 480 40,000  Level Miami Center
01:20PM 24.7478 -76.2614 307° West 411 473 40,000  Level Miami Center
01:21PM 24.8169 -76.3619 307° West 411 473 40,000  Level Miami Center
01:22PM 24.8864 -76.4625 307° West 416 479 40,000  Level Miami Center
01:23PM 24.9556 -76.5631 307° West 416 479 40,000  Level Miami Center
01:24PM 25.0267 -76.6639 308° West 416 479 40,000  Level Miami Center
01:25PM 25.0958 -76.7647 307° West 416 479 40,000  Level Miami Center
01:26PM 25.1628 -76.8633 307° West 416 479 40,000  Level Miami Center
01:27PM 25.2339 -76.9667 307° West 416 479 40,000  Level Miami Center
01:28PM 25.3047 -77.0703 307° West 416 479 40,000 -60 Level Miami Center
01:29PM 25.3756 -77.1717 308° West 416 479 39,900 -60 Descending Miami Center
01:30PM 25.4464 -77.2775 307° West 416 479 39,900  Level Miami Center
01:31PM 25.5150 -77.3814 306° West 421 484 40,000  Climbing Miami Center
01:32PM 25.5733 -77.4647 308° West 426 490 40,000  Level Miami Center
01:33PM 25.6481 -77.5781 306° West 426 490 40,100 60 Climbing Miami Center
01:34PM 25.7206 -77.6844 307° West 426 490 40,200 -60 Climbing Miami Center
01:35PM 25.7931 -77.7867 308° West 432 497 40,000 -120 Descending Miami Center
01:36PM 25.8614 -77.8933 305° West 432 497 40,000  Level Miami Center
01:37PM 25.9294 -77.9981 306° West 427 491 40,000  Level Miami Center
01:38PM 25.9997 -78.1003 307° West 427 491 40,000  Level Miami Center
01:39PM 26.0678 -78.2075 305° West 432 497 40,000  Level Miami Center
01:40PM 26.1400 -78.3078 309° West 432 497 40,000  Level Miami Center
01:41PM 26.2056 -78.4197 303° West 427 491 40,000  Level Miami Center
01:42PM 26.2733 -78.5250 306° West 427 491 40,000  Level Miami Center
01:43PM 26.3453 -78.6256 309° West 427 491 40,000  Level Miami Center
01:44PM 26.4194 -78.7289 309° West 427 491 40,000  Level Miami Center
01:45PM 26.4828 -78.8342 304° West 422 486 40,000  Level Miami Center
01:46PM 26.5586 -78.9422 308° West 422 486 40,000  Level Miami Center
01:47PM 26.6281 -79.0481 306° West 428 493 40,000 -600 Level Miami Center
01:48PM 26.6911 -79.1469 306° West 423 487 38,900 -1,980 Descending Miami Center
01:49PM 26.7606 -79.2531 306° West 423 487 36,100 -2,880 Descending Miami Center
01:50PM 26.8378 -79.3711 306° West 432 497 33,200 -2,460 Descending Miami Center
01:51PM 26.9069 -79.4797 306° West 432 497 31,200 -2,400 Descending Miami Center
01:52PM 26.9719 -79.5792 306° West 432 497 28,400 -2,160 Descending Miami Center
01:53PM 27.0431 -79.6856 307° West 432 497 26,900 -720 Descending Miami Center
01:54PM 27.1181 -79.8042 305° West 432 497 27,000  Climbing Miami Center
01:55PM 27.1825 -79.9156 303° West 432 497 27,000 -60 Level Miami Center
01:56PM 27.2553 -80.0250 307° West 432 497 26,900 -840 Descending Miami Center
01:57PM 27.3219 -80.1319 305° West 432 497 25,400 -2,040 Descending Miami Center
01:58PM 27.3883 -80.2344 306° West 427 491 22,900 -2,520 Descending Miami Center
01:59PM 27.4508 -80.3322 306° West 416 479 20,400 -2,220 Descending Miami Center
02:00PM 27.5111 -80.4275 306° West 392 451 18,500 -1,800 Descending Miami Center
02:01PM 27.5614 -80.5019 307° West 348 400 16,900 -1,860 Descending Miami Center
02:02PM 27.6136 -80.5808 307° West 329 379 14,800 -2,400 Descending Miami Center
02:03PM 27.6658 -80.6669 304° West 310 357 12,100 -2,100 Descending Miami Center
02:04PM 27.7139 -80.7436 305° West 305 351 10,700 -1,500 Descending Miami Center
02:05PM 27.7597 -80.8203 304° West 300 345 9,100 -1,320 Descending Miami Center
02:06PM 27.8058 -80.8897 307° West 293 337 8,100 -360 Descending Miami Center
02:08PM 27.8833 -81.0167 305° West 273 314 8,100  Level Orlando TRACON
02:09PM 27.9333 -81.0833 310° West 272 313 8,100  Level Orlando TRACON
02:10PM 27.9833 -81.1500 310° West 271 312 8,100  Level Orlando TRACON
02:11PM 28.0500 -81.1833 336° Northwest 275 316 8,100 -300 Level Orlando TRACON
02:12PM 28.0667 -81.2667 283° West 272 313 7,600 -1,200 Descending Orlando TRACON
02:14PM 28.1000 -81.4167 284° West 240 276 4,600 -1,200 Descending Orlando TRACON
02:15PM 28.1333 -81.4667 307° West 212 244 4,000 -840 Descending Orlando TRACON
02:16PM 28.2000 -81.4833 348° North 209 241 3,000 -540 Descending Orlando TRACON
02:17PM 28.2500 -81.5000 344° North 222 255 3,000 -480 Level Orlando TRACON
02:18PM 28.3167 -81.5167 348° North 229 264 2,100 -480 Descending Orlando TRACON
02:19PM 28.3833 -81.5167 360° North 207 238 2,100  Level Orlando TRACON
02:20PM 28.4333 -81.5167 360° North 195 224 2,100 -60 Level Orlando TRACON
02:21PM 28.4833 -81.4833 30° Northeast 190 219 2,000 -60 Descending Orlando TRACON
02:22PM 28.5000 -81.4333 69° East 162 186 2,000  Level Orlando TRACON